createdAt,value
2022-10-29T00:02:06.315Z,4.82
2022-10-29T00:04:33.002Z,5.07
2022-10-29T00:06:59.580Z,5.63
2022-10-29T00:09:26.257Z,4.78
2022-10-29T00:11:52.882Z,5.53
2022-10-29T00:14:19.505Z,3.85
2022-10-29T00:16:46.094Z,3.22
2022-10-29T00:19:12.690Z,4.78
2022-10-29T00:21:40.488Z,5.10
2022-10-29T00:24:09.593Z,5.28
2022-10-29T00:26:36.227Z,4.88
2022-10-29T00:29:02.858Z,3.67
2022-10-29T00:31:29.632Z,4.78
2022-10-29T00:33:56.340Z,4.28
2022-10-29T00:36:24.987Z,4.50
2022-10-29T00:38:51.615Z,4.32
2022-10-29T00:41:20.802Z,4.50
2022-10-29T00:43:52.007Z,4.88
2022-10-29T00:46:31.448Z,5.10
2022-10-29T00:48:58.104Z,4.70
2022-10-29T00:51:24.781Z,5.80
2022-10-29T00:53:56.280Z,3.72
2022-10-29T00:56:23.510Z,3.95
2022-10-29T00:58:50.090Z,5.18
2022-10-29T01:01:16.898Z,5.00
2022-10-29T01:03:43.741Z,5.63
2022-10-29T01:06:10.316Z,7.95
2022-10-29T01:08:36.919Z,6.00
2022-10-29T01:11:23.050Z,6.32
2022-10-29T01:13:58.050Z,5.75
2022-10-29T01:17:00.678Z,5.50
2022-10-29T01:19:55.819Z,4.18
2022-10-29T01:22:45.634Z,4.85
2022-10-29T01:25:20.779Z,4.13
2022-10-29T01:28:06.898Z,4.80
2022-10-29T01:31:10.508Z,4.60
2022-10-29T01:34:13.350Z,4.05
2022-10-29T01:36:44.320Z,3.13
2022-10-29T01:39:17.282Z,2.50
2022-10-29T01:41:54.239Z,2.40
2022-10-29T01:44:36.759Z,3.83
2022-10-29T01:47:18.353Z,3.90
2022-10-29T01:49:47.930Z,4.18
2022-10-29T01:52:15.358Z,3.70
2022-10-29T01:54:45.418Z,3.35
2022-10-29T01:57:38.144Z,2.95
2022-10-29T02:00:15.585Z,2.45
2022-10-29T02:02:48.381Z,2.75
2022-10-29T02:05:19.210Z,3.20
2022-10-29T02:07:52.500Z,3.15
2022-10-29T02:10:27.507Z,4.32
2022-10-29T02:12:54.510Z,5.20
2022-10-29T02:15:39.461Z,6.05
2022-10-29T02:18:07.090Z,6.03
2022-10-29T02:20:33.871Z,5.93
2022-10-29T02:23:00.611Z,7.90
2022-10-29T02:25:27.693Z,7.43
2022-10-29T02:27:54.666Z,6.78
2022-10-29T02:30:21.434Z,4.15
2022-10-29T02:32:48.040Z,5.38
2022-10-29T02:35:14.766Z,4.97
2022-10-29T02:37:41.525Z,4.47
2022-10-29T02:40:08.698Z,5.13
2022-10-29T02:42:35.362Z,5.05
2022-10-29T02:45:02.009Z,4.50
2022-10-29T02:47:28.773Z,3.83
2022-10-29T02:49:55.517Z,7.55
2022-10-29T02:52:22.205Z,9.20
2022-10-29T02:54:48.776Z,5.93
2022-10-29T02:57:15.437Z,4.82
2022-10-29T02:59:42.134Z,5.72
2022-10-29T03:02:08.867Z,5.68
2022-10-29T03:04:35.566Z,4.05
2022-10-29T03:07:02.367Z,4.43
2022-10-29T03:09:29.022Z,5.45
2022-10-29T03:11:55.691Z,5.50
2022-10-29T03:14:22.424Z,6.05
2022-10-29T03:16:48.998Z,6.15
2022-10-29T03:19:15.570Z,6.90
2022-10-29T03:21:42.218Z,6.65
2022-10-29T03:24:08.926Z,6.22
2022-10-29T03:26:35.496Z,3.50
2022-10-29T03:29:02.237Z,4.60
2022-10-29T03:31:28.899Z,8.02
2022-10-29T03:33:55.504Z,6.57
2022-10-29T03:36:22.285Z,4.82
2022-10-29T03:38:48.921Z,3.55
2022-10-29T03:41:15.561Z,3.60
2022-10-29T03:43:42.219Z,4.30
2022-10-29T03:46:09.088Z,6.18
2022-10-29T03:48:35.693Z,6.05
2022-10-29T03:51:05.988Z,4.80
2022-10-29T03:53:33.394Z,3.03
2022-10-29T03:56:00.048Z,2.95
2022-10-29T03:58:26.840Z,2.75
2022-10-29T04:01:00.973Z,3.45
2022-10-29T04:03:28.422Z,3.28
2022-10-29T04:05:54.966Z,3.33
2022-10-29T04:08:21.813Z,3.92
2022-10-29T04:10:50.337Z,3.63
2022-10-29T04:13:17.069Z,3.70
2022-10-29T04:15:43.740Z,3.50
2022-10-29T04:18:10.599Z,2.85
2022-10-29T04:21:03.136Z,3.10
2022-10-29T04:28:57.435Z,7.03
2022-10-29T04:31:24.124Z,8.63
2022-10-29T04:33:53.072Z,13.95
2022-10-29T04:36:19.718Z,11.77
2022-10-29T04:38:46.337Z,9.73
2022-10-29T04:41:13.033Z,14.50
2022-10-29T04:43:39.724Z,18.90
2022-10-29T04:46:06.378Z,5.55
2022-10-29T04:48:33.125Z,5.68
2022-10-29T04:50:59.708Z,4.32
2022-10-29T04:53:26.387Z,3.03
2022-10-29T04:56:05.698Z,2.97
2022-10-29T04:58:32.332Z,2.70
2022-10-29T05:01:02.817Z,3.92
2022-10-29T05:03:29.641Z,5.80
2022-10-29T05:05:56.221Z,8.40
2022-10-29T05:08:22.946Z,5.18
2022-10-29T05:10:49.516Z,4.78
2022-10-29T05:13:16.185Z,4.32
2022-10-29T05:15:42.794Z,5.30
2022-10-29T05:18:10.162Z,7.85
2022-10-29T05:20:36.750Z,5.28
2022-10-29T05:23:05.703Z,4.88
2022-10-29T05:25:33.023Z,7.35
2022-10-29T05:28:06.804Z,5.20
2022-10-29T05:30:33.704Z,6.88
2022-10-29T05:33:00.370Z,7.10
2022-10-29T05:35:27.491Z,6.60
2022-10-29T05:37:54.616Z,6.07
2022-10-29T05:40:21.883Z,8.55
2022-10-29T05:42:48.582Z,6.45
2022-10-29T05:45:15.385Z,13.93
2022-10-29T05:47:41.974Z,10.65
2022-10-29T05:50:09.194Z,8.43
2022-10-29T05:52:35.811Z,12.63
2022-10-29T05:55:02.434Z,8.43
2022-10-29T05:57:29.048Z,8.55
2022-10-29T05:59:55.699Z,7.88
2022-10-29T06:02:22.483Z,9.88
2022-10-29T06:04:49.191Z,10.20
2022-10-29T06:07:15.816Z,10.68
2022-10-29T06:09:42.447Z,7.78
2022-10-29T06:12:09.061Z,8.35
2022-10-29T06:14:35.629Z,9.35
2022-10-29T06:17:02.331Z,7.20
2022-10-29T06:19:29.039Z,10.27
2022-10-29T06:21:59.431Z,11.05
2022-10-29T06:24:27.522Z,8.65
2022-10-29T06:26:54.584Z,5.15
2022-10-29T06:29:21.284Z,4.13
2022-10-29T06:31:47.943Z,4.35
2022-10-29T06:34:14.948Z,5.47
2022-10-29T06:36:41.640Z,8.98
2022-10-29T06:39:08.327Z,6.07
2022-10-29T06:41:34.961Z,6.45
2022-10-29T06:44:01.703Z,5.55
2022-10-29T06:46:28.321Z,6.38
2022-10-29T06:48:55.013Z,4.65
2022-10-29T06:53:54.805Z,6.55
2022-10-29T06:56:21.729Z,5.35
2022-10-29T06:58:48.305Z,7.38
2022-10-29T07:01:14.922Z,4.38
2022-10-29T07:03:41.712Z,25.20
2022-10-29T07:06:08.272Z,10.43
2022-10-29T07:08:34.934Z,4.50
2022-10-29T07:11:02.902Z,7.55
2022-10-29T07:13:29.615Z,5.85
2022-10-29T07:15:56.388Z,16.95
2022-10-29T07:18:23.002Z,9.27
2022-10-29T07:20:49.580Z,5.97
2022-10-29T07:23:16.279Z,4.30
2022-10-29T07:25:43.048Z,4.00
2022-10-29T07:28:13.730Z,34.90
2022-10-29T07:30:40.646Z,3.60
2022-10-29T07:33:07.250Z,8.13
2022-10-29T07:35:34.810Z,29.45
2022-10-29T07:38:05.478Z,6.38
2022-10-29T07:40:37.836Z,12.18
2022-10-29T07:43:04.554Z,9.50
2022-10-29T07:45:31.284Z,4.40
2022-10-29T07:48:03.055Z,5.15
2022-10-29T07:50:30.162Z,3.30
2022-10-29T07:52:59.010Z,2.65
2022-10-29T07:55:25.906Z,5.50
2022-10-29T07:58:01.213Z,3.22
2022-10-29T08:00:28.832Z,2.95
2022-10-29T08:02:55.483Z,4.78
2022-10-29T08:05:22.660Z,3.58
2022-10-29T08:07:49.374Z,2.92
2022-10-29T08:10:16.643Z,2.70
2022-10-29T08:12:56.533Z,3.00
2022-10-29T08:15:24.013Z,2.45
2022-10-29T08:17:50.871Z,2.72
2022-10-29T08:20:17.554Z,2.63
2022-10-29T08:22:44.218Z,2.10
2022-10-29T08:25:10.934Z,2.58
2022-10-29T08:27:37.810Z,2.40
2022-10-29T08:30:08.463Z,2.20
2022-10-29T08:32:35.634Z,2.28
2022-10-29T08:35:02.642Z,2.45
2022-10-29T08:37:29.374Z,2.50
2022-10-29T08:39:55.991Z,2.25
2022-10-29T08:42:41.747Z,2.10
2022-10-29T08:45:11.050Z,2.42
2022-10-29T08:47:52.984Z,2.03
2022-10-29T08:50:30.530Z,1.95
2022-10-29T08:53:19.401Z,1.70
2022-10-29T08:55:43.811Z,1.67
2022-10-29T08:58:16.674Z,2.13
2022-10-29T09:00:43.462Z,1.90
2022-10-29T09:03:11.748Z,1.70
2022-10-29T09:05:52.936Z,1.90
2022-10-29T09:08:40.977Z,1.80
2022-10-29T09:11:27.630Z,1.40
2022-10-29T09:14:28.403Z,1.50
2022-10-29T09:17:14.540Z,1.10
2022-10-29T09:20:07.969Z,1.35
2022-10-29T09:22:37.430Z,0.85
2022-10-29T09:25:12.941Z,0.95
2022-10-29T09:28:13.285Z,0.90
2022-10-29T09:30:56.732Z,1.02
2022-10-29T09:33:23.372Z,1.20
2022-10-29T09:35:53.945Z,1.30
2022-10-29T09:38:24.497Z,1.00
2022-10-29T09:40:51.252Z,0.73
2022-10-29T09:43:45.146Z,0.90
2022-10-29T09:46:27.045Z,0.88
2022-10-29T09:49:30.459Z,1.20
2022-10-29T09:52:00.880Z,1.00
2022-10-29T09:54:28.818Z,0.98
2022-10-29T09:56:56.120Z,1.00
2022-10-29T09:59:30.081Z,0.85
2022-10-29T10:01:58.064Z,1.17
2022-10-29T10:04:40.379Z,0.70
2022-10-29T10:07:10.952Z,1.00
2022-10-29T10:09:59.302Z,0.90
2022-10-29T10:12:27.886Z,0.95
2022-10-29T10:15:16.221Z,0.90
2022-10-29T10:18:06.004Z,0.60
2022-10-29T10:20:44.235Z,1.30
2022-10-29T10:23:30.465Z,1.00
2022-10-29T10:26:02.024Z,1.00
2022-10-29T10:28:31.817Z,0.93
2022-10-29T10:31:10.876Z,1.20
2022-10-29T10:33:43.750Z,1.20
2022-10-29T10:36:10.426Z,0.70
2022-10-29T10:38:49.251Z,1.10
2022-10-29T10:41:16.824Z,1.02
2022-10-29T10:43:46.385Z,1.25
2022-10-29T10:46:27.491Z,0.80
2022-10-29T10:49:02.372Z,0.90
2022-10-29T10:51:36.309Z,0.88
2022-10-29T10:54:06.223Z,0.70
2022-10-29T10:56:32.914Z,1.02
2022-10-29T10:59:12.702Z,1.50
2022-10-29T11:01:44.150Z,1.30
2022-10-29T11:04:31.639Z,1.08
2022-10-29T11:06:59.805Z,0.65
2022-10-29T11:09:33.877Z,0.90
2022-10-29T11:12:24.728Z,0.82
2022-10-29T11:14:55.846Z,0.80
2022-10-29T11:17:22.380Z,0.70
2022-10-29T11:19:49.234Z,0.93
2022-10-29T11:22:34.021Z,0.65
2022-10-29T11:25:45.970Z,1.40
2022-10-29T11:28:19.796Z,0.70
2022-10-29T11:31:09.176Z,0.80
2022-10-29T11:33:47.606Z,0.75
2022-10-29T11:36:24.109Z,0.50
2022-10-29T11:38:59.175Z,0.45
2022-10-29T11:41:44.954Z,0.50
2022-10-29T11:44:12.852Z,0.40
2022-10-29T11:47:05.499Z,0.52
2022-10-29T11:50:02.027Z,0.43
2022-10-29T11:52:49.767Z,0.60
2022-10-29T11:55:43.689Z,0.45
2022-10-29T11:58:19.623Z,0.32
2022-10-29T12:01:00.471Z,0.60
2022-10-29T12:03:53.014Z,0.80
2022-10-29T12:06:43.925Z,0.88
2022-10-29T12:09:32.594Z,0.60
2022-10-29T12:12:04.002Z,0.30
2022-10-29T12:14:38.985Z,0.40
2022-10-29T12:17:34.535Z,0.50
2022-10-29T12:20:14.935Z,0.60
2022-10-29T12:22:52.726Z,0.30
2022-10-29T12:25:30.923Z,0.30
2022-10-29T12:28:21.803Z,0.38
2022-10-29T12:30:57.529Z,0.50
2022-10-29T12:33:28.852Z,0.30
2022-10-29T12:36:10.671Z,0.20
2022-10-29T12:38:53.698Z,0.35
2022-10-29T12:41:52.885Z,0.40
2022-10-29T12:44:44.850Z,0.22
2022-10-29T12:47:16.850Z,0.20
2022-10-29T12:50:05.624Z,0.20
2022-10-29T12:52:40.422Z,0.30
2022-10-29T12:55:07.558Z,0.20
2022-10-29T12:57:35.077Z,0.60
2022-10-29T13:00:23.552Z,0.30
2022-10-29T13:02:52.096Z,0.50
2022-10-29T13:05:35.974Z,0.40
2022-10-29T13:08:09.172Z,0.50
2022-10-29T13:10:35.764Z,0.40
2022-10-29T13:13:05.625Z,0.63
2022-10-29T13:15:58.576Z,0.60
2022-10-29T13:18:29.309Z,0.80
2022-10-29T13:20:55.920Z,0.50
2022-10-29T13:23:22.517Z,0.40
2022-10-29T13:25:49.477Z,0.80
2022-10-29T13:28:16.037Z,0.50
2022-10-29T13:30:43.717Z,0.60
2022-10-29T13:33:30.558Z,0.40
2022-10-29T13:36:15.579Z,0.40
2022-10-29T13:38:57.930Z,0.30
2022-10-29T13:41:40.306Z,0.50
2022-10-29T13:44:26.215Z,0.52
2022-10-29T13:47:05.551Z,0.43
2022-10-29T13:49:43.410Z,0.50
2022-10-29T13:52:10.024Z,0.30
2022-10-29T13:54:48.677Z,0.60
2022-10-29T13:57:21.347Z,0.40
2022-10-29T13:59:56.344Z,0.50
2022-10-29T14:02:30.557Z,0.55
2022-10-29T14:05:25.011Z,0.75
2022-10-29T14:08:15.768Z,0.90
2022-10-29T14:10:42.239Z,0.80
2022-10-29T14:13:25.260Z,0.90
2022-10-29T14:16:07.032Z,1.02
2022-10-29T14:18:33.703Z,0.90
2022-10-29T14:21:01.434Z,2.00
2022-10-29T14:23:28.938Z,1.35
2022-10-29T14:26:04.766Z,1.00
2022-10-29T14:28:33.120Z,1.00
2022-10-29T14:31:03.906Z,0.88
2022-10-29T14:33:31.642Z,0.70
2022-10-29T14:36:15.529Z,0.57
2022-10-29T14:38:45.987Z,0.67
2022-10-29T14:41:12.670Z,0.68
2022-10-29T14:43:39.437Z,0.85
2022-10-29T14:46:14.029Z,0.50
2022-10-29T14:48:45.414Z,0.93
2022-10-29T14:51:18.835Z,0.90
2022-10-29T14:53:45.501Z,1.58
2022-10-29T14:56:12.780Z,1.10
2022-10-29T14:58:39.431Z,1.00
2022-10-29T15:01:13.856Z,1.30
2022-10-29T15:03:40.601Z,1.23
2022-10-29T15:06:20.908Z,1.40
2022-10-29T15:09:13.822Z,1.48
2022-10-29T15:11:42.343Z,1.50
2022-10-29T15:14:30.085Z,1.23
2022-10-29T15:16:56.824Z,1.00
2022-10-29T15:19:23.764Z,0.98
2022-10-29T15:21:50.447Z,1.30
2022-10-29T15:24:20.890Z,8.23
2022-10-29T15:26:55.078Z,4.20
2022-10-29T15:29:33.374Z,1.20
2022-10-29T15:32:01.449Z,1.02
2022-10-29T15:34:37.145Z,3.15
2022-10-29T15:37:19.090Z,20.58
2022-10-29T15:40:17.183Z,30.17
2022-10-29T15:42:45.428Z,44.50
2022-10-29T15:45:46.942Z,50.50
2022-10-29T15:48:13.542Z,43.13
2022-10-29T15:50:41.698Z,42.97
2022-10-29T15:53:15.945Z,27.67
2022-10-29T15:55:42.706Z,35.13
2022-10-29T15:58:16.887Z,45.70
2022-10-29T16:00:43.619Z,86.72
2022-10-29T16:03:14.021Z,70.40
2022-10-29T16:05:41.976Z,74.40
2022-10-29T16:08:28.920Z,35.33
2022-10-29T16:10:56.288Z,34.78
2022-10-29T16:13:26.599Z,25.42
2022-10-29T16:15:53.335Z,44.30
2022-10-29T16:18:20.005Z,70.63
2022-10-29T16:20:46.753Z,56.33
2022-10-29T16:23:13.526Z,36.38
2022-10-29T16:25:41.789Z,25.80
2022-10-29T16:28:09.445Z,22.48
2022-10-29T16:30:36.926Z,24.55
2022-10-29T16:33:03.854Z,28.80
2022-10-29T16:35:30.668Z,26.33
2022-10-29T16:37:57.570Z,24.48
2022-10-29T16:40:25.580Z,15.98
2022-10-29T16:42:54.965Z,25.45
2022-10-29T16:45:26.652Z,44.40
2022-10-29T16:47:53.458Z,23.80
2022-10-29T16:50:27.857Z,16.20
2022-10-29T16:55:25.979Z,15.13
2022-10-29T16:57:52.990Z,10.48
2022-10-29T17:00:19.644Z,8.50
2022-10-29T17:02:46.196Z,8.27
2022-10-29T17:05:13.276Z,8.10
2022-10-29T17:07:40.038Z,8.40
2022-10-29T17:10:07.208Z,7.93
2022-10-29T17:12:33.975Z,8.18
2022-10-29T17:15:00.572Z,8.35
2022-10-29T17:17:30.141Z,8.88
2022-10-29T17:19:56.978Z,7.45
2022-10-29T17:22:23.716Z,7.57
2022-10-29T17:24:50.291Z,6.60
2022-10-29T17:27:16.970Z,5.68
2022-10-29T17:29:43.651Z,7.97
2022-10-29T17:32:10.355Z,9.43
2022-10-29T17:34:36.999Z,19.20
2022-10-29T17:37:03.816Z,18.33
2022-10-29T17:39:30.497Z,14.85
2022-10-29T17:41:57.206Z,15.70
2022-10-29T17:44:28.621Z,13.57
2022-10-29T17:46:55.431Z,9.68
2022-10-29T17:49:22.207Z,16.58
2022-10-29T17:51:48.826Z,10.20
2022-10-29T17:54:16.121Z,16.35
2022-10-29T17:56:42.832Z,26.02
2022-10-29T17:59:09.422Z,21.00
2022-10-29T18:01:36.233Z,23.25
2022-10-29T18:04:03.955Z,20.55
2022-10-29T18:06:30.662Z,26.83
2022-10-29T18:08:57.261Z,24.65
2022-10-29T18:11:24.313Z,20.15
2022-10-29T18:13:51.528Z,19.63
2022-10-29T18:16:19.681Z,21.52
2022-10-29T18:19:00.833Z,17.67
2022-10-29T18:21:28.529Z,15.15
2022-10-29T18:23:55.184Z,11.40
2022-10-29T18:26:26.878Z,9.15
2022-10-29T18:28:54.325Z,9.63
2022-10-29T18:31:21.454Z,10.50
2022-10-29T18:33:48.179Z,15.57
2022-10-29T18:36:14.935Z,16.60
2022-10-29T18:38:41.582Z,16.48
2022-10-29T18:41:08.286Z,14.48
2022-10-29T18:43:35.878Z,13.73
2022-10-29T18:46:06.414Z,10.00
2022-10-29T18:48:36.945Z,7.45
2022-10-29T18:51:06.050Z,13.55
2022-10-29T18:53:32.743Z,16.77
2022-10-29T18:55:59.516Z,16.73
2022-10-29T18:58:26.151Z,14.55
2022-10-29T19:00:52.899Z,14.27
2022-10-29T19:03:19.749Z,11.57
2022-10-29T19:05:46.582Z,12.40
2022-10-29T19:08:13.329Z,11.38
2022-10-29T19:10:41.239Z,9.35
2022-10-29T19:13:08.053Z,9.35
2022-10-29T19:15:35.526Z,14.10
2022-10-29T19:18:02.177Z,16.55
2022-10-29T19:20:29.003Z,15.82
2022-10-29T19:22:56.824Z,13.18
2022-10-29T19:25:24.519Z,11.13
2022-10-29T19:27:51.165Z,10.93
2022-10-29T19:30:17.969Z,12.43
2022-10-29T19:32:44.709Z,10.05
2022-10-29T19:35:11.424Z,7.13
2022-10-29T19:37:39.042Z,8.00
2022-10-29T19:40:07.469Z,6.18
2022-10-29T19:42:34.134Z,5.70
2022-10-29T19:45:00.707Z,5.93
2022-10-29T19:47:27.302Z,4.88
2022-10-29T19:49:53.938Z,3.65
2022-10-29T19:52:21.431Z,5.82
2022-10-29T19:54:48.009Z,5.25
2022-10-29T19:57:14.703Z,4.10
2022-10-29T19:59:41.298Z,4.00
2022-10-29T20:02:10.061Z,3.45
2022-10-29T20:04:36.755Z,4.22
2022-10-29T20:07:03.358Z,5.05
2022-10-29T20:09:30.542Z,5.10
2022-10-29T20:11:57.168Z,4.90
2022-10-29T20:14:28.802Z,4.43
2022-10-29T20:16:55.879Z,4.68
2022-10-29T20:19:22.601Z,4.75
2022-10-29T20:21:49.278Z,3.97
2022-10-29T20:24:15.921Z,4.00
2022-10-29T20:26:42.577Z,6.53
2022-10-29T20:29:09.200Z,5.60
2022-10-29T20:31:40.084Z,4.22
2022-10-29T20:34:08.355Z,3.80
2022-10-29T20:36:35.309Z,4.10
2022-10-29T20:39:02.112Z,5.22
2022-10-29T20:41:29.251Z,5.90
2022-10-29T20:43:59.957Z,5.30
2022-10-29T20:46:26.712Z,7.28
2022-10-29T20:48:53.390Z,4.57
2022-10-29T20:51:20.161Z,5.00
2022-10-29T20:53:46.893Z,5.68
2022-10-29T20:56:16.199Z,5.97
2022-10-29T20:58:43.378Z,20.77
2022-10-29T21:01:11.719Z,12.45
2022-10-29T21:03:38.426Z,6.20
2022-10-29T21:06:06.035Z,6.20
2022-10-29T21:08:32.681Z,5.93
2022-10-29T21:11:10.134Z,5.60
2022-10-29T21:13:36.947Z,5.32
2022-10-29T21:16:08.258Z,6.05
2022-10-29T21:18:39.022Z,6.60
2022-10-29T21:21:05.991Z,7.65
2022-10-29T21:23:32.871Z,6.60
2022-10-29T21:25:59.791Z,6.85
2022-10-29T21:28:26.450Z,8.10
2022-10-29T21:30:53.019Z,7.32
2022-10-29T21:33:19.689Z,7.50
2022-10-29T21:35:53.821Z,7.28
2022-10-29T21:40:50.453Z,6.82
2022-10-29T21:43:17.472Z,7.60
2022-10-29T21:45:44.719Z,5.82
2022-10-29T21:48:11.840Z,5.65
2022-10-29T21:50:38.495Z,4.03
2022-10-29T21:53:05.717Z,5.15
2022-10-29T21:55:32.510Z,4.03
2022-10-29T21:57:59.517Z,4.38
2022-10-29T22:00:26.871Z,5.65
2022-10-29T22:02:53.688Z,5.53
2022-10-29T22:05:20.345Z,8.07
2022-10-29T22:07:47.011Z,10.48
2022-10-29T22:10:13.635Z,9.65
2022-10-29T22:12:40.200Z,4.93
2022-10-29T22:15:07.620Z,4.88
2022-10-29T22:17:34.265Z,5.30
2022-10-29T22:20:00.882Z,5.75
2022-10-29T22:22:27.533Z,4.65
2022-10-29T22:24:54.117Z,7.25
2022-10-29T22:27:20.826Z,5.72
2022-10-29T22:29:51.984Z,7.60
2022-10-29T22:32:21.119Z,6.65
2022-10-29T22:34:47.718Z,8.82
2022-10-29T22:37:14.352Z,4.95
2022-10-29T22:39:40.974Z,5.88
2022-10-29T22:42:07.594Z,6.40
2022-10-29T22:44:34.194Z,5.85
2022-10-29T22:47:00.810Z,4.70
2022-10-29T22:49:27.537Z,4.45
2022-10-29T22:51:58.658Z,6.45
2022-10-29T22:54:28.037Z,9.07
2022-10-29T22:56:54.643Z,9.38
2022-10-29T22:59:21.306Z,7.35
2022-10-29T23:01:48.093Z,4.50
2022-10-29T23:04:15.666Z,5.38
2022-10-29T23:06:42.247Z,7.40
2022-10-29T23:09:08.987Z,6.57
2022-10-29T23:11:39.032Z,4.90
2022-10-29T23:14:05.773Z,7.97
2022-10-29T23:16:33.307Z,5.95
2022-10-29T23:19:01.303Z,8.25
2022-10-29T23:21:28.323Z,5.63
2022-10-29T23:23:55.052Z,4.50
2022-10-29T23:26:22.497Z,5.75
2022-10-29T23:28:49.216Z,2.92
2022-10-29T23:31:17.382Z,5.78
2022-10-29T23:33:45.197Z,4.50
2022-10-29T23:36:12.005Z,3.83
2022-10-29T23:38:38.551Z,4.75
2022-10-29T23:41:05.197Z,4.70
2022-10-29T23:43:31.847Z,5.65
2022-10-29T23:45:58.569Z,5.75
2022-10-29T23:48:25.181Z,6.82
2022-10-29T23:50:51.954Z,6.28
2022-10-29T23:53:18.825Z,3.40
2022-10-29T23:55:45.574Z,4.15
2022-10-29T23:58:13.650Z,4.18
